Time;durP1;ratioP1;P1;durP2;ratioP2;P2;SDS_P1;SDS_P2;PMS_P1;PMS_P2;Temp;Humidity;BMP_temperature;BMP_pressure;BME280_temperature;BME280_humidity;BME280_pressure;Samples;Min_cycle;Max_cycle;Signal;HPM_P1;HPM_P2
2023/05/12 00:01:16;;;;;;;48.27;26.67;;;;;;;12.65;100.00;100844.50;5041037;28;20239;-68
2023/05/12 00:03:42;;;;;;;41.33;26.20;;;;;;;12.66;100.00;100856.91;5045456;28;20214;-68
2023/05/12 00:06:11;;;;;;;43.57;26.10;;;;;;;12.66;100.00;100846.22;5045624;28;20736;-68
2023/05/12 00:08:37;;;;;;;46.33;27.03;;;;;;;12.67;100.00;100853.28;5043420;28;20236;-68
2023/05/12 00:11:04;;;;;;;45.00;27.13;;;;;;;12.68;100.00;100852.31;5046522;28;20225;-68
2023/05/12 00:13:30;;;;;;;43.10;26.33;;;;;;;12.69;100.00;100846.03;5045649;28;20202;-68
2023/05/12 00:15:57;;;;;;;43.73;26.33;;;;;;;12.71;100.00;100845.91;5042312;28;20203;-68
2023/05/12 00:18:24;;;;;;;54.30;30.33;;;;;;;12.72;100.00;100850.31;5046201;28;20233;-68
2023/05/12 00:20:52;;;;;;;54.40;29.13;;;;;;;12.73;100.00;100852.84;5040069;28;20236;-68
2023/05/12 00:23:21;;;;;;;39.80;24.50;;;;;;;12.74;100.00;100854.53;5047257;28;20778;-68
2023/05/12 00:25:47;;;;;;;42.17;25.53;;;;;;;12.73;100.00;100854.66;5049210;28;20305;-68
2023/05/12 00:28:14;;;;;;;39.10;24.30;;;;;;;12.74;100.00;100851.03;5050804;28;20205;-69
2023/05/12 00:30:40;;;;;;;38.37;24.80;;;;;;;12.73;100.00;100855.50;5048813;28;20730;-68
2023/05/12 00:33:06;;;;;;;37.20;23.60;;;;;;;12.74;100.00;100859.91;5050454;28;20209;-68
2023/05/12 00:35:33;;;;;;;36.23;23.63;;;;;;;12.74;100.00;100859.03;5048783;28;20220;-68
2023/05/12 00:37:59;;;;;;;37.50;24.60;;;;;;;12.73;100.00;100860.84;5050507;28;20205;-68
2023/05/12 00:40:27;;;;;;;42.07;24.87;;;;;;;12.75;100.00;100866.09;5048374;28;20237;-68
2023/05/12 00:42:54;;;;;;;39.17;24.10;;;;;;;12.74;100.00;100867.91;5050126;28;20206;-69
2023/05/12 00:45:20;;;;;;;38.70;24.53;;;;;;;12.75;100.00;100864.28;5048956;28;20217;-69
2023/05/12 00:47:47;;;;;;;33.87;23.57;;;;;;;12.74;100.00;100869.72;5050095;28;20293;-69
2023/05/12 00:50:15;;;;;;;35.07;22.37;;;;;;;12.72;100.00;100869.00;5047392;28;20800;-69
2023/05/12 00:52:42;;;;;;;35.07;23.30;;;;;;;12.70;100.00;100863.75;5048968;28;20221;-69
2023/05/12 00:55:09;;;;;;;31.83;22.67;;;;;;;12.70;100.00;100861.09;5044087;28;20563;-69
2023/05/12 00:57:37;;;;;;;31.37;22.23;;;;;;;12.69;100.00;100861.19;5048180;28;20205;-69
2023/05/12 01:00:05;;;;;;;35.23;22.00;;;;;;;12.67;100.00;100858.63;5043902;28;20225;-69
2023/05/12 01:02:32;;;;;;;32.97;22.00;;;;;;;12.67;100.00;100855.94;5044973;28;20308;-69
2023/05/12 01:04:58;;;;;;;32.10;22.73;;;;;;;12.67;100.00;100860.44;5042324;28;20208;-69
2023/05/12 01:07:26;;;;;;;36.07;24.00;;;;;;;12.66;100.00;100862.25;5047237;28;20210;-69
2023/05/12 01:09:55;;;;;;;33.60;22.23;;;;;;;12.66;100.00;100869.41;5045569;28;20684;-69
2023/05/12 01:12:21;;;;;;;34.83;22.17;;;;;;;12.64;100.00;100866.84;5050037;28;20248;-69
2023/05/12 01:14:50;;;;;;;30.87;21.40;;;;;;;12.61;100.00;100866.19;5053314;28;20643;-69
2023/05/12 01:17:20;;;;;;;31.10;21.07;;;;;;;12.60;100.00;100864.47;5050400;28;20300;-69
2023/05/12 01:19:50;;;;;;;32.93;21.77;;;;;;;12.58;100.00;100855.72;5052716;28;20564;-69
2023/05/12 01:22:17;;;;;;;32.00;21.83;;;;;;;12.58;100.00;100866.41;5047119;28;20287;-69
2023/05/12 01:24:47;;;;;;;29.33;21.30;;;;;;;12.56;100.00;100869.16;5049119;28;20649;-69
2023/05/12 01:27:16;;;;;;;29.23;20.63;;;;;;;12.55;100.00;100866.59;5048616;28;20205;-69
2023/05/12 01:29:45;;;;;;;26.03;19.17;;;;;;;12.50;100.00;100872.28;5049172;28;20212;-69
2023/05/12 01:32:12;;;;;;;26.73;19.53;;;;;;;12.46;100.00;100882.31;5048490;28;20296;-69
2023/05/12 01:34:41;;;;;;;27.83;19.37;;;;;;;12.44;100.00;100883.38;5045107;28;20215;-69
2023/05/12 01:37:07;;;;;;;29.57;20.47;;;;;;;12.43;100.00;100873.63;5047636;28;20650;-69
2023/05/12 01:39:34;;;;;;;28.33;21.23;;;;;;;12.43;100.00;100878.97;5048747;28;20208;-69
2023/05/12 01:42:00;;;;;;;26.20;20.17;;;;;;;12.42;100.00;100893.28;5044282;28;20237;-69
2023/05/12 01:44:28;;;;;;;27.20;20.37;;;;;;;12.41;100.00;100879.09;5046318;28;20212;-69
2023/05/12 01:46:55;;;;;;;26.93;19.80;;;;;;;12.41;100.00;100887.09;5045224;28;20228;-69
2023/05/12 01:49:21;;;;;;;27.37;20.67;;;;;;;12.41;100.00;100883.56;5050276;28;20262;-69
2023/05/12 01:51:48;;;;;;;28.47;20.27;;;;;;;12.41;100.00;100880.91;5050890;28;20221;-69
2023/05/12 01:54:14;;;;;;;27.20;20.77;;;;;;;12.41;100.00;100884.44;5054372;28;20605;-69
2023/05/12 01:56:41;;;;;;;26.23;19.53;;;;;;;12.41;100.00;100876.41;5056900;28;20228;-69
2023/05/12 01:59:08;;;;;;;27.77;20.53;;;;;;;12.41;100.00;100879.09;5052694;28;20202;-69
2023/05/12 02:01:35;;;;;;;26.50;19.60;;;;;;;12.41;100.00;100878.22;5044758;28;20260;-69
2023/05/12 02:04:03;;;;;;;26.80;19.73;;;;;;;12.40;100.00;100893.41;5057765;28;20294;-69
2023/05/12 02:06:30;;;;;;;26.07;19.63;;;;;;;12.38;100.00;100889.97;5045819;28;20205;-69
2023/05/12 02:08:57;;;;;;;26.60;19.80;;;;;;;12.35;100.00;100894.69;5054488;28;20201;-69
2023/05/12 02:11:23;;;;;;;22.30;18.50;;;;;;;12.33;100.00;100889.44;5052710;28;20228;-69
2023/05/12 02:13:50;;;;;;;27.30;20.03;;;;;;;12.31;100.00;100899.38;5046619;28;20701;-69
2023/05/12 02:16:16;;;;;;;26.87;19.83;;;;;;;12.30;100.00;100896.78;5047697;28;20669;-69
2023/05/12 02:18:44;;;;;;;28.37;20.63;;;;;;;12.28;100.00;100894.22;5047675;28;20844;-69
2023/05/12 02:21:10;;;;;;;32.60;19.40;;;;;;;12.27;100.00;100895.19;5047176;28;20659;-69
2023/05/12 02:23:37;;;;;;;23.93;18.77;;;;;;;12.27;100.00;100897.00;5046927;28;20216;-69
2023/05/12 02:26:03;;;;;;;22.20;18.37;;;;;;;12.26;100.00;100889.94;5047682;28;20262;-69
2023/05/12 02:28:30;;;;;;;24.73;18.60;;;;;;;12.26;100.00;100890.78;5045627;28;20217;-69
2023/05/12 02:30:56;;;;;;;27.63;19.80;;;;;;;12.26;100.00;100901.47;5046907;28;20744;-68
2023/05/12 02:33:23;;;;;;;26.37;19.93;;;;;;;12.26;100.00;100893.47;5047293;28;20216;-69
2023/05/12 02:35:51;;;;;;;24.83;18.83;;;;;;;12.25;100.00;100893.56;5047131;28;20220;-69
2023/05/12 02:38:17;;;;;;;27.63;19.13;;;;;;;12.26;100.00;100893.47;5047234;28;20206;-69
2023/05/12 02:40:44;;;;;;;26.77;20.40;;;;;;;12.27;100.00;100899.66;5046028;28;20691;-69
2023/05/12 02:43:10;;;;;;;26.70;20.47;;;;;;;12.27;100.00;100891.66;5047897;28;20213;-69
2023/05/12 02:45:37;;;;;;;25.87;20.03;;;;;;;12.25;100.00;100891.75;5046801;28;20201;-69
2023/05/12 02:48:04;;;;;;;25.80;18.97;;;;;;;12.26;100.00;100896.13;5046638;28;20208;-69
2023/05/12 02:50:30;;;;;;;26.37;19.83;;;;;;;12.27;100.00;100900.53;5045952;28;20226;-69
2023/05/12 02:52:58;;;;;;;28.07;19.77;;;;;;;12.27;100.00;100910.34;5042140;28;20209;-69
2023/05/12 02:55:25;;;;;;;28.57;19.43;;;;;;;12.24;100.00;100898.06;5046519;28;20213;-69
2023/05/12 02:57:51;;;;;;;26.10;20.07;;;;;;;12.22;100.00;100891.94;5048255;28;20214;-69
2023/05/12 03:00:18;;;;;;;27.90;20.10;;;;;;;12.19;100.00;100900.16;5045006;28;20224;-69
2023/05/12 03:02:44;;;;;;;26.60;19.83;;;;;;;12.17;100.00;100902.09;5046730;28;20205;-69
2023/05/12 03:05:11;;;;;;;32.97;19.83;;;;;;;12.16;100.00;100897.72;5047627;28;20208;-69
2023/05/12 03:07:38;;;;;;;27.90;19.50;;;;;;;12.15;100.00;100893.34;5045724;28;20692;-69
2023/05/12 03:10:07;;;;;;;29.47;20.47;;;;;;;12.14;100.00;100891.63;5047171;28;20216;-69
2023/05/12 03:12:33;;;;;;;27.13;19.87;;;;;;;12.14;100.00;100895.16;5045834;28;20203;-69
2023/05/12 03:15:00;;;;;;;29.07;19.57;;;;;;;12.15;100.00;100896.00;5047739;28;20209;-69
2023/05/12 03:17:26;;;;;;;27.27;20.10;;;;;;;12.14;100.00;100894.28;5044768;28;20224;-69
2023/05/12 03:19:53;;;;;;;30.70;21.03;;;;;;;12.15;100.00;100896.00;5046421;28;20209;-69
2023/05/12 03:22:19;;;;;;;28.73;20.67;;;;;;;12.15;100.00;100899.53;5047341;28;20236;-69
2023/05/12 03:24:46;;;;;;;30.93;20.63;;;;;;;12.15;100.00;100896.00;5043142;28;20216;-69
2023/05/12 03:27:14;;;;;;;29.40;21.50;;;;;;;12.16;100.00;100895.06;5046903;28;20243;-69
2023/05/12 03:29:40;;;;;;;30.23;21.27;;;;;;;12.16;100.00;100903.06;5044446;28;20205;-69
2023/05/12 03:32:08;;;;;;;32.03;21.90;;;;;;;12.16;100.00;100903.06;5047064;28;20233;-68
2023/05/12 03:34:34;;;;;;;30.23;21.27;;;;;;;12.16;100.00;100897.72;5046075;28;20252;-69
2023/05/12 03:37:00;;;;;;;31.83;21.30;;;;;;;12.16;100.00;100895.06;5047821;28;20209;-69
2023/05/12 03:39:27;;;;;;;30.60;21.97;;;;;;;12.16;100.00;100892.38;5045663;28;20209;-69
2023/05/12 03:41:53;;;;;;;32.70;21.70;;;;;;;12.15;100.00;100902.19;5047276;28;20229;-69
2023/05/12 03:44:21;;;;;;;31.83;21.60;;;;;;;12.14;100.00;100929.00;5046117;28;20218;-69
2023/05/12 03:46:48;;;;;;;32.47;22.70;;;;;;;12.12;100.00;100926.44;5047058;28;20220;-69
2023/05/12 03:49:14;;;;;;;33.83;23.40;;;;;;;12.12;100.00;100913.06;5044712;28;20232;-69
2023/05/12 03:51:41;;;;;;;31.67;22.03;;;;;;;12.12;100.00;100912.22;5044464;28;20230;-69
2023/05/12 03:54:07;;;;;;;31.73;22.17;;;;;;;12.11;100.00;100919.38;5044929;28;20198;-69
2023/05/12 03:56:33;;;;;;;26.03;20.00;;;;;;;12.11;100.00;100926.53;5045322;28;20222;-69
2023/05/12 03:59:00;;;;;;;26.97;19.47;;;;;;;12.09;100.00;100933.78;5048925;28;20687;-69
2023/05/12 04:01:28;;;;;;;32.17;21.23;;;;;;;12.06;100.00;100931.28;5049899;28;20230;-69
2023/05/12 04:03:54;;;;;;;31.30;21.27;;;;;;;12.06;100.00;100948.16;5044309;28;20212;-69
2023/05/12 04:06:21;;;;;;;30.97;21.57;;;;;;;12.04;100.00;100923.38;5043872;28;20577;-69
2023/05/12 04:08:47;;;;;;;36.13;22.87;;;;;;;12.05;100.00;100934.91;5050298;28;20229;-69
2023/05/12 04:11:14;;;;;;;33.83;22.70;;;;;;;12.04;100.00;100923.38;5047549;28;20228;-69
2023/05/12 04:13:40;;;;;;;35.03;24.23;;;;;;;12.04;100.00;100923.38;5048759;28;20221;-69
2023/05/12 04:16:07;;;;;;;37.33;23.50;;;;;;;12.05;100.00;100935.78;5046955;28;20213;-69
2023/05/12 04:18:35;;;;;;;35.30;23.33;;;;;;;12.09;100.00;100941.78;5049316;28;20606;-69
2023/05/12 04:21:02;;;;;;;39.60;24.63;;;;;;;12.10;100.00;100943.50;5045301;28;20264;-69
2023/05/12 04:23:28;;;;;;;40.70;25.47;;;;;;;12.12;100.00;100939.78;5048051;28;20205;-69
2023/05/12 04:25:55;;;;;;;37.10;25.23;;;;;;;12.14;100.00;100939.69;5049035;28;20232;-69
2023/05/12 04:28:21;;;;;;;34.87;23.07;;;;;;;12.15;100.00;100952.94;5049926;28;20703;-69
2023/05/12 04:30:48;;;;;;;30.53;21.60;;;;;;;12.15;100.00;100952.94;5049962;28;20231;-69
2023/05/12 04:33:14;;;;;;;31.00;21.50;;;;;;;12.16;100.00;100968.00;5048929;28;20700;-69
2023/05/12 04:35:42;;;;;;;33.87;21.57;;;;;;;12.16;100.00;100973.34;5049912;28;20205;-69
2023/05/12 04:38:08;;;;;;;36.10;23.20;;;;;;;12.15;100.00;100971.63;5049522;28;20210;-69
2023/05/12 04:40:35;;;;;;;35.83;23.67;;;;;;;12.16;100.00;100967.13;5045009;28;20233;-69
2023/05/12 04:43:01;;;;;;;35.30;23.27;;;;;;;12.16;100.00;100973.34;5047453;28;20311;-69
2023/05/12 04:45:28;;;;;;;37.60;24.27;;;;;;;12.17;100.00;100966.19;5041810;28;20208;-69
2023/05/12 04:47:55;;;;;;;36.37;24.33;;;;;;;12.19;100.00;100966.91;5045347;28;20213;-69
2023/05/12 04:50:21;;;;;;;38.13;23.90;;;;;;;12.21;100.00;100981.03;5048063;28;20824;-69
2023/05/12 04:52:49;;;;;;;50.80;24.37;;;;;;;12.22;100.00;100980.06;5048885;28;20700;-69
2023/05/12 04:55:15;;;;;;;37.33;24.67;;;;;;;12.23;100.00;100973.78;5043454;28;20740;-69
2023/05/12 04:57:42;;;;;;;43.17;26.50;;;;;;;12.24;100.00;100978.16;5046600;28;20292;-69
2023/05/12 05:00:09;;;;;;;38.20;24.07;;;;;;;12.26;100.00;100983.41;5048797;28;20236;-69
2023/05/12 05:02:36;;;;;;;38.33;24.23;;;;;;;12.28;100.00;100984.16;5047928;28;20229;-69
2023/05/12 05:05:02;;;;;;;37.90;24.07;;;;;;;12.30;100.00;100984.94;5048516;28;20209;-69
2023/05/12 05:07:29;;;;;;;37.80;24.37;;;;;;;12.32;100.00;100986.53;5046078;28;20206;-69
2023/05/12 05:09:57;;;;;;;36.53;23.63;;;;;;;12.35;100.00;100980.16;5039740;28;20213;-69
2023/05/12 05:12:24;;;;;;;44.70;27.13;;;;;;;12.38;100.00;100985.25;5046731;28;20241;-69
2023/05/12 05:14:51;;;;;;;39.30;26.07;;;;;;;12.41;100.00;100983.25;5049038;28;20205;-69
2023/05/12 05:17:17;;;;;;;39.20;25.53;;;;;;;12.44;100.00;100984.88;5046756;28;20689;-69
2023/05/12 05:19:43;;;;;;;38.07;24.17;;;;;;;12.47;100.00;100985.53;5047564;28;20201;-69
2023/05/12 05:22:10;;;;;;;39.47;25.80;;;;;;;12.52;100.00;100977.22;5046753;28;20233;-69
2023/05/12 05:24:36;;;;;;;41.97;25.17;;;;;;;12.56;100.00;100993.88;5047613;28;20757;-69
2023/05/12 05:27:05;;;;;;;39.37;25.03;;;;;;;12.60;100.00;100995.41;5047718;28;20206;-69
2023/05/12 05:29:31;;;;;;;42.90;26.60;;;;;;;12.62;100.00;100983.66;5047409;28;20212;-69
2023/05/12 05:31:58;;;;;;;36.80;25.10;;;;;;;12.66;100.00;100989.66;5048304;28;20218;-70
2023/05/12 05:34:24;;;;;;;39.83;24.70;;;;;;;12.69;100.00;101000.16;5044538;28;20210;-69
2023/05/12 05:36:51;;;;;;;40.70;26.27;;;;;;;12.74;100.00;100998.00;5044362;28;20227;-69
2023/05/12 05:39:17;;;;;;;36.77;25.60;;;;;;;12.77;100.00;100998.66;5046280;28;20209;-69
2023/05/12 05:41:44;;;;;;;38.53;25.10;;;;;;;12.80;100.00;101000.28;5047570;28;20865;-69
2023/05/12 05:44:12;;;;;;;36.50;24.37;;;;;;;12.84;100.00;100999.13;5046781;28;20209;-69
2023/05/12 05:46:38;;;;;;;39.23;25.67;;;;;;;12.86;100.00;101005.22;5044325;28;20212;-69
2023/05/12 05:49:04;;;;;;;40.70;25.73;;;;;;;12.93;100.00;101002.97;5046860;28;20212;-69
2023/05/12 05:51:32;;;;;;;35.57;25.57;;;;;;;12.96;100.00;101005.44;5047849;28;20233;-70
2023/05/12 05:53:58;;;;;;;34.07;23.63;;;;;;;12.99;100.00;101003.44;5047189;28;20197;-69
2023/05/12 05:56:25;;;;;;;34.33;23.60;;;;;;;13.03;100.00;101015.63;5047242;28;20492;-69
2023/05/12 05:58:51;;;;;;;33.90;23.97;;;;;;;13.05;100.00;101008.38;5048319;28;20217;-69
2023/05/12 06:01:19;;;;;;;36.63;24.33;;;;;;;13.08;100.00;101008.13;5045555;28;20225;-68
2023/05/12 06:03:46;;;;;;;34.17;23.47;;;;;;;13.10;100.00;101022.25;5046078;28;20215;-68
2023/05/12 06:06:12;;;;;;;32.63;23.20;;;;;;;13.12;100.00;101012.31;5045519;28;20201;-69
2023/05/12 06:08:39;;;;;;;30.13;23.63;;;;;;;13.15;100.00;101016.66;5044796;28;20198;-69
2023/05/12 06:11:05;;;;;;;31.20;24.00;;;;;;;13.18;100.00;101011.09;5048041;28;20304;-68
2023/05/12 06:13:32;;;;;;;27.67;22.17;;;;;;;13.20;100.00;101011.84;5046569;28;20202;-69
2023/05/12 06:15:58;;;;;;;27.10;22.57;;;;;;;13.22;100.00;101017.94;5044305;28;20283;-68
2023/05/12 06:18:26;;;;;;;27.97;21.77;;;;;;;13.22;100.00;101017.94;5047513;28;20209;-68
2023/05/12 06:20:52;;;;;;;26.70;22.33;;;;;;;13.25;100.00;101024.91;5047206;28;20228;-69
2023/05/12 06:23:19;;;;;;;30.03;22.67;;;;;;;13.27;100.00;101023.81;5045044;28;20228;-69
2023/05/12 06:25:48;;;;;;;29.53;23.10;;;;;;;13.30;100.00;101034.31;5047942;28;20760;-69
2023/05/12 06:28:14;;;;;;;30.10;24.13;;;;;;;13.33;100.00;101028.75;5046205;28;20208;-68
2023/05/12 06:30:41;;;;;;;30.00;22.90;;;;;;;13.35;100.00;101036.69;5047148;28;20233;-68
2023/05/12 06:33:07;;;;;;;29.03;23.30;;;;;;;13.38;100.00;101031.13;5047378;28;20210;-68
2023/05/12 06:35:35;;;;;;;29.47;23.20;;;;;;;13.41;100.00;101039.81;5047882;28;20210;-68
2023/05/12 06:38:02;;;;;;;26.60;22.27;;;;;;;13.44;100.00;101036.88;5047375;28;20205;-68
2023/05/12 06:40:28;;;;;;;26.97;22.47;;;;;;;13.49;100.00;101033.91;5047783;28;20225;-68
2023/05/12 06:42:55;;;;;;;26.33;22.10;;;;;;;13.53;100.00;101030.06;5046283;28;20236;-69
2023/05/12 06:45:22;;;;;;;28.47;21.97;;;;;;;13.57;100.00;101030.72;5047247;28;20213;-68
2023/05/12 06:47:49;;;;;;;25.67;21.93;;;;;;;13.60;100.00;101031.34;5043931;28;20214;-69
2023/05/12 06:50:16;;;;;;;22.50;20.13;;;;;;;13.62;100.00;101033.91;5047376;28;20228;-69
2023/05/12 06:52:44;;;;;;;23.43;20.47;;;;;;;13.65;100.00;101036.38;5045108;28;20300;-69
2023/05/12 06:55:10;;;;;;;23.27;20.83;;;;;;;13.64;100.00;101042.69;5046424;28;20250;-69
2023/05/12 06:57:37;;;;;;;23.33;20.93;;;;;;;13.65;100.00;101050.59;5044534;28;20244;-68
2023/05/12 07:00:04;;;;;;;23.73;21.27;;;;;;;13.70;100.00;101061.00;5045784;28;20260;-69
2023/05/12 07:02:30;;;;;;;25.10;21.27;;;;;;;13.72;100.00;101057.25;5044916;28;20266;-68
2023/05/12 07:04:57;;;;;;;24.83;21.97;;;;;;;13.75;100.00;101050.84;5039626;28;20308;-69
2023/05/12 07:07:23;;;;;;;22.63;20.33;;;;;;;13.78;100.00;101050.63;5039239;28;20209;-68
2023/05/12 07:09:51;;;;;;;22.67;20.20;;;;;;;13.80;100.00;101049.53;5047114;28;20201;-69
2023/05/12 07:12:17;;;;;;;25.23;20.60;;;;;;;13.81;100.00;101056.59;5046201;28;20193;-69
2023/05/12 07:14:44;;;;;;;24.73;20.57;;;;;;;13.83;100.00;101053.81;5046471;28;20208;-70
2023/05/12 07:17:10;;;;;;;23.30;20.93;;;;;;;13.86;100.00;101040.22;5046341;28;20209;-69
2023/05/12 07:19:38;;;;;;;23.37;20.83;;;;;;;13.87;100.00;101044.59;5046853;28;20201;-68
2023/05/12 07:22:04;;;;;;;26.00;21.97;;;;;;;13.91;100.00;101046.09;5047396;28;20331;-68
2023/05/12 07:24:31;;;;;;;23.80;21.30;;;;;;;13.97;100.00;101050.19;5045661;28;20296;-69
2023/05/12 07:26:59;;;;;;;25.60;19.77;;;;;;;14.00;100.00;101050.78;5046556;28;20209;-69
2023/05/12 07:29:26;;;;;;;23.53;21.17;;;;;;;14.05;100.00;101053.16;5046302;28;20739;-69
2023/05/12 07:31:52;;;;;;;23.73;19.97;;;;;;;14.09;100.00;101054.66;5046842;28;20224;-69
2023/05/12 07:34:18;;;;;;;23.27;19.63;;;;;;;14.14;100.00;101050.69;5051864;28;20204;-70
2023/05/12 07:36:45;;;;;;;21.60;19.43;;;;;;;14.20;100.00;101054.72;5047170;28;20487;-69
2023/05/12 07:39:12;;;;;;;19.93;17.83;;;;;;;14.24;100.00;101050.88;5051334;28;20205;-69
2023/05/12 07:41:39;;;;;;;20.63;18.50;;;;;;;14.30;100.00;101055.78;5049930;28;20249;-69
2023/05/12 07:44:07;;;;;;;19.53;17.73;;;;;;;14.37;100.00;101062.41;5050258;28;20236;-69
2023/05/12 07:46:33;;;;;;;20.07;18.13;;;;;;;14.47;100.00;101054.59;5050201;28;20211;-69
2023/05/12 07:48:59;;;;;;;20.47;18.63;;;;;;;14.57;100.00;101063.66;5050719;28;20217;-69
2023/05/12 07:51:26;;;;;;;17.47;15.77;;;;;;;14.68;100.00;101054.84;5047575;28;20233;-69
2023/05/12 07:53:54;;;;;;;17.53;15.80;;;;;;;14.76;100.00;101060.47;5048316;28;20202;-70
2023/05/12 07:56:20;;;;;;;16.97;15.20;;;;;;;14.86;100.00;101056.16;5048651;28;20901;-69
2023/05/12 07:58:46;;;;;;;16.73;15.23;;;;;;;14.94;100.00;101057.28;5041884;28;20202;-70
2023/05/12 08:01:14;;;;;;;16.57;14.57;;;;;;;15.05;100.00;101059.16;5046824;28;20599;-69
2023/05/12 08:03:41;;;;;;;18.23;14.17;;;;;;;15.14;100.00;101057.59;5044599;28;20227;-70
2023/05/12 08:06:07;;;;;;;14.37;12.97;;;;;;;15.21;100.00;101062.41;5048160;28;20214;-70
2023/05/12 08:08:35;;;;;;;13.10;11.93;;;;;;;15.27;100.00;101059.22;5056160;28;20851;-69
2023/05/12 08:11:01;;;;;;;13.43;12.23;;;;;;;15.34;100.00;101050.72;5054581;28;20230;-70
2023/05/12 08:13:28;;;;;;;14.50;12.77;;;;;;;15.42;100.00;101048.28;5044223;28;20686;-70
2023/05/12 08:15:54;;;;;;;13.10;11.87;;;;;;;15.52;100.00;101057.34;5044834;28;20204;-71
2023/05/12 08:18:22;;;;;;;10.47;9.50;;;;;;;15.60;100.00;101052.25;5048399;28;20216;-69
2023/05/12 08:20:49;;;;;;;9.97;9.10;;;;;;;15.70;100.00;101060.47;5049162;28;20228;-69
2023/05/12 08:23:16;;;;;;;10.83;9.83;;;;;;;15.79;100.00;101049.00;5045714;28;20264;-69
2023/05/12 08:25:43;;;;;;;10.13;9.23;;;;;;;15.89;100.00;101053.53;5050422;28;20222;-69
2023/05/12 08:28:09;;;;;;;10.80;9.70;;;;;;;16.00;98.61;101059.88;5047785;28;20761;-69
2023/05/12 08:30:36;;;;;;;9.30;8.50;;;;;;;16.11;97.42;101051.84;5051913;28;20232;-70
2023/05/12 08:33:02;;;;;;;11.33;8.57;;;;;;;16.19;94.63;101054.75;5046798;28;20243;-70
2023/05/12 08:35:30;;;;;;;8.70;8.00;;;;;;;16.27;91.95;101046.94;5050315;28;20228;-69
2023/05/12 08:37:58;;;;;;;9.50;7.93;;;;;;;16.40;90.71;101052.16;5048659;28;20206;-69
2023/05/12 08:40:25;;;;;;;8.60;7.73;;;;;;;16.52;88.91;101059.22;5053381;28;20611;-70
2023/05/12 08:42:56;;;;;;;8.50;7.77;;;;;;;16.61;86.40;101053.97;5046061;28;20320;-69
2023/05/12 08:45:23;;;;;;;8.57;7.77;;;;;;;16.74;85.47;101047.59;5048484;28;21036;-70
2023/05/12 08:47:50;;;;;;;7.70;7.00;;;;;;;16.89;84.41;101049.00;5052809;28;20227;-70
2023/05/12 08:50:18;;;;;;;8.37;7.03;;;;;;;17.02;83.72;101049.66;5045034;28;20245;-70
2023/05/12 08:52:46;;;;;;;9.10;7.27;;;;;;;17.15;83.10;101050.38;5047123;28;20705;-69
2023/05/12 08:55:14;;;;;;;8.43;7.27;;;;;;;17.26;81.25;101052.13;5047133;28;20208;-70
2023/05/12 08:57:44;;;;;;;9.53;6.77;;;;;;;17.41;80.98;101055.34;5038553;28;20208;-69
2023/05/12 09:00:14;;;;;;;7.40;6.80;;;;;;;17.55;79.91;101046.97;5042667;28;20218;-70
2023/05/12 09:02:42;;;;;;;7.53;6.93;;;;;;;17.66;78.60;101055.00;5042772;28;20228;-70
2023/05/12 09:05:09;;;;;;;7.83;7.13;;;;;;;17.79;77.38;101058.31;5052873;28;20199;-70
2023/05/12 09:07:36;;;;;;;9.00;8.10;;;;;;;17.92;76.99;101053.56;5042042;28;20208;-69
2023/05/12 09:10:09;;;;;;;7.90;7.03;;;;;;;18.04;75.91;101063.28;5049260;28;20228;-70
2023/05/12 09:12:37;;;;;;;9.53;7.83;;;;;;;18.16;74.76;101057.78;5049336;28;20284;-70
2023/05/12 09:15:06;;;;;;;8.47;7.77;;;;;;;18.29;74.65;101053.84;5049036;28;20205;-70
2023/05/12 09:17:33;;;;;;;8.93;8.13;;;;;;;18.43;73.08;101057.19;5045746;28;20234;-69
2023/05/12 09:20:00;;;;;;;8.43;7.70;;;;;;;18.53;72.61;101055.34;5048854;28;20204;-70
2023/05/12 09:22:30;;;;;;;9.13;8.20;;;;;;;18.68;72.40;101065.63;5051910;28;20219;-70
2023/05/12 09:24:56;;;;;;;9.30;8.30;;;;;;;18.83;72.13;101057.13;5049565;28;20696;-69
2023/05/12 09:27:28;;;;;;;8.83;8.03;;;;;;;18.97;72.66;101054.91;5052543;28;20206;-71
2023/05/12 09:29:55;;;;;;;9.30;8.30;;;;;;;19.07;72.30;101057.59;5046182;28;20224;-70
2023/05/12 09:32:31;;;;;;;8.73;7.93;;;;;;;19.19;72.15;101069.09;5047002;28;20214;-70
2023/05/12 09:35:02;;;;;;;10.33;7.87;;;;;;;19.27;70.57;101066.53;5046551;28;21070;-70
2023/05/12 09:37:32;;;;;;;9.10;8.07;;;;;;;19.37;70.31;101062.81;5052397;28;20210;-70
2023/05/12 09:40:00;;;;;;;8.37;7.57;;;;;;;19.52;70.04;101062.44;5053305;28;20594;-70
2023/05/12 09:42:29;;;;;;;8.27;7.50;;;;;;;19.63;67.73;101075.78;5054336;28;20242;-70
2023/05/12 09:44:59;;;;;;;8.13;7.43;;;;;;;19.67;66.79;101069.09;5047392;28;20707;-70
2023/05/12 09:47:27;;;;;;;10.53;7.20;;;;;;;19.76;65.96;101065.50;5044717;28;20386;-70
2023/05/12 09:49:56;;;;;;;7.97;7.20;;;;;;;19.86;66.15;101063.63;5046163;28;20304;-70
2023/05/12 09:52:22;;;;;;;7.68;7.00;;;;;;;19.93;65.06;101064.72;5044320;28;20220;-70
2023/05/12 09:54:51;;;;;;;7.60;6.90;;;;;;;20.01;64.40;101054.03;5047544;28;20209;-70
2023/05/12 09:57:21;;;;;;;7.30;6.68;;;;;;;20.10;63.68;101060.41;5041487;28;20202;-69
2023/05/12 09:59:50;;;;;;;7.15;6.45;;;;;;;20.15;61.93;101062.66;5044580;28;20201;-70
2023/05/12 10:02:17;;;;;;;7.30;6.60;;;;;;;20.17;61.08;101066.94;5043077;28;20683;-70
2023/05/12 10:04:47;;;;;;;7.35;6.68;;;;;;;20.23;60.79;101054.66;5047333;28;20723;-70
2023/05/12 10:07:14;;;;;;;7.18;6.32;;;;;;;20.30;60.98;101058.47;5048192;28;21370;-70
2023/05/12 10:09:42;;;;;;;7.13;6.35;;;;;;;20.40;59.80;101067.44;5046389;28;20220;-70
2023/05/12 10:12:09;;;;;;;6.95;6.25;;;;;;;20.42;58.87;101063.53;5041567;28;20213;-70
2023/05/12 10:14:37;;;;;;;7.25;6.63;;;;;;;20.52;59.72;101057.25;5040498;28;20724;-70
2023/05/12 10:17:05;;;;;;;7.35;6.57;;;;;;;20.63;60.39;101057.00;5047065;28;20676;-71
2023/05/12 10:19:32;;;;;;;6.32;5.75;;;;;;;20.70;58.66;101053.56;5047495;28;20205;-70
2023/05/12 10:22:00;;;;;;;7.00;6.10;;;;;;;20.75;58.40;101058.53;5045171;28;20715;-70
2023/05/12 10:24:28;;;;;;;9.75;5.43;;;;;;;20.80;57.98;101054.34;5046731;28;20232;-70
2023/05/12 10:26:56;;;;;;;5.25;4.70;;;;;;;20.84;55.53;101060.28;5046803;28;20708;-70
2023/05/12 10:29:28;;;;;;;4.43;4.03;;;;;;;20.82;54.13;101058.75;5048025;28;21953;-69
2023/05/12 10:31:55;;;;;;;4.13;3.72;;;;;;;20.78;52.55;101061.75;5044680;28;20767;-70
2023/05/12 10:34:23;;;;;;;5.72;3.97;;;;;;;20.75;51.14;101062.09;5041742;28;20220;-70
2023/05/12 10:36:52;;;;;;;5.50;4.40;;;;;;;20.71;50.76;101057.13;5048250;28;20657;-70
2023/05/12 10:39:19;;;;;;;6.15;4.40;;;;;;;20.73;50.88;101065.94;5045537;28;20220;-70
2023/05/12 10:41:46;;;;;;;5.65;4.50;;;;;;;20.78;51.74;101059.03;5055415;28;20246;-70
2023/05/12 10:44:12;;;;;;;7.43;4.70;;;;;;;20.90;52.35;101065.09;5052106;28;20225;-70
2023/05/12 10:46:39;;;;;;;5.60;4.70;;;;;;;20.94;50.92;101054.81;5050777;28;20672;-70
2023/05/12 10:49:08;;;;;;;5.22;4.68;;;;;;;21.02;50.39;101054.88;5043976;28;20486;-72
2023/05/12 10:51:48;;;;;;;4.72;4.30;;;;;;;21.06;49.75;101050.88;5048492;28;20256;-70
2023/05/12 10:54:20;;;;;;;5.35;3.97;;;;;;;21.08;48.66;101054.28;5041619;28;20198;-71
2023/05/12 10:56:47;;;;;;;5.55;4.97;;;;;;;21.06;47.60;101054.44;5042385;28;20205;-70
2023/05/12 10:59:16;;;;;;;6.20;5.15;;;;;;;21.07;48.42;101052.56;5049785;28;20224;-70
2023/05/12 11:01:55;;;;;;;7.60;4.97;;;;;;;21.12;49.40;101053.81;5040938;28;20229;-70
2023/05/12 11:04:23;;;;;;;5.95;5.30;;;;;;;21.22;48.78;101058.31;5050864;28;20240;-70
2023/05/12 11:06:59;;;;;;;5.47;4.45;;;;;;;21.28;49.52;101050.44;5055599;28;20209;-70